Time;durP1;ratioP1;P1;durP2;ratioP2;P2;SDS_P1;SDS_P2;PMS_P1;PMS_P2;Temp;Humidity;BMP_temperature;BMP_pressure;BME280_temperature;BME280_humidity;BME280_pressure;Samples;Min_cycle;Max_cycle;Signal;HPM_P1;HPM_P2
2023/03/28 00:01:24;;;;;;;3.28;2.97;;;;;;;4.84;61.75;100899.72;4997937;28;20081;-45
2023/03/28 00:03:51;;;;;;;6.68;3.30;;;;;;;4.84;61.65;100889.44;5000458;28;20072;-44
2023/03/28 00:06:19;;;;;;;7.05;2.80;;;;;;;4.81;62.68;100894.47;5005550;28;20042;-44
2023/03/28 00:08:46;;;;;;;6.57;3.00;;;;;;;4.82;62.12;100896.22;5005187;28;20053;-45
2023/03/28 00:11:18;;;;;;;6.97;2.63;;;;;;;4.83;61.70;100892.81;5005113;28;20528;-45
2023/03/28 00:13:52;;;;;;;3.10;2.30;;;;;;;4.84;62.01;100884.31;5006099;28;20046;-45
2023/03/28 00:16:19;;;;;;;4.13;2.63;;;;;;;4.83;62.54;100879.97;5002361;28;20124;-45
2023/03/28 00:18:45;;;;;;;9.73;3.20;;;;;;;4.83;62.65;100872.28;5005291;28;20049;-44
2023/03/28 00:24:01;;;;;;;6.18;2.78;;;;;;;4.82;62.67;100865.41;5077590;27;20404;-45
2023/03/28 00:26:33;;;;;;;4.47;3.55;;;;;;;4.80;63.44;100869.59;5091869;28;20096;-44
2023/03/28 00:29:01;;;;;;;3.20;2.90;;;;;;;4.79;63.62;100867.84;5107710;28;20040;-44
2023/03/28 00:31:29;;;;;;;3.35;2.55;;;;;;;4.79;63.83;100854.16;5110960;27;20105;-44
2023/03/28 00:33:56;;;;;;;5.18;3.30;;;;;;;4.77;64.12;100864.38;5113097;28;20097;-43
2023/03/28 00:36:28;;;;;;;6.68;2.80;;;;;;;4.75;64.26;100864.31;5109755;28;20043;-44
2023/03/28 00:38:56;;;;;;;4.32;2.65;;;;;;;4.75;64.23;100863.44;5101982;28;20058;-44
2023/03/28 00:41:25;;;;;;;7.32;1.90;;;;;;;4.73;65.09;100859.97;5102958;28;20459;-45
2023/03/28 00:43:53;;;;;;;3.28;2.15;;;;;;;4.70;65.99;100852.16;5100079;28;20055;-43
2023/03/28 00:46:28;;;;;;;3.30;2.78;;;;;;;4.68;65.66;100851.22;5107259;28;20081;-43
2023/03/28 00:49:02;;;;;;;5.05;2.50;;;;;;;4.66;66.06;100850.31;5103951;28;20052;-43
2023/03/28 00:51:32;;;;;;;6.10;2.38;;;;;;;4.68;66.11;100854.66;5106386;28;20106;-43
2023/03/28 00:54:02;;;;;;;4.68;2.17;;;;;;;4.67;66.32;100840.09;5103671;28;20101;-44
2023/03/28 00:56:33;;;;;;;7.13;2.17;;;;;;;4.62;66.98;100837.38;5102696;28;20134;-43
2023/03/28 00:59:04;;;;;;;4.20;2.60;;;;;;;4.63;66.54;100833.97;5097480;28;20071;-43
2023/03/28 01:01:30;;;;;;;2.83;2.17;;;;;;;4.61;66.93;100840.75;5105307;28;20105;-43
2023/03/28 01:04:05;;;;;;;4.05;3.05;;;;;;;4.57;67.47;100833.78;5107555;28;20050;-43
2023/03/28 01:06:39;;;;;;;2.83;2.22;;;;;;;4.61;66.87;100835.63;5107076;28;20039;-43
2023/03/28 01:09:07;;;;;;;5.97;2.58;;;;;;;4.59;67.18;100826.13;5106401;28;20043;-43
2023/03/28 01:11:36;;;;;;;3.35;3.00;;;;;;;4.57;67.39;100828.66;5099195;28;20149;-43
2023/03/28 01:14:03;;;;;;;3.42;2.53;;;;;;;4.59;66.76;100832.13;5100335;28;20071;-43
2023/03/28 01:16:30;;;;;;;5.68;2.15;;;;;;;4.56;67.78;100826.03;5103545;28;20055;-43
2023/03/28 01:19:00;;;;;;;3.15;2.45;;;;;;;4.54;67.83;100825.97;5099669;28;20891;-43
2023/03/28 01:27:21;;;;;;;1.73;1.60;;;;;;;4.49;67.82;100805.28;5068862;27;20414;-44
2023/03/28 01:46:15;;;;;;;2.47;2.28;;;;;;;4.46;68.28;100802.59;5056964;28;20407;-43
2023/03/28 01:52:14;;;;;;;2.95;1.65;;;;;;;4.42;68.08;100787.91;5016300;27;20414;-43
2023/03/28 02:02:59;;;;;;;2.10;0.80;;;;;;;4.44;67.59;100785.41;5075327;27;20411;-43
2023/03/28 02:05:28;;;;;;;2.35;0.65;;;;;;;4.44;67.70;100782.84;5051138;28;20045;-43
2023/03/28 02:07:57;;;;;;;3.20;0.75;;;;;;;4.42;67.76;100776.81;5035246;28;20085;-43
2023/03/28 02:10:27;;;;;;;1.25;0.60;;;;;;;4.43;67.97;100773.41;5038483;28;20053;-42
2023/03/28 02:12:59;;;;;;;4.45;0.63;;;;;;;4.39;67.71;100772.41;5037635;28;20073;-43
2023/03/28 02:15:28;;;;;;;1.77;1.17;;;;;;;4.38;67.68;100770.69;5033829;28;20345;-43
2023/03/28 02:18:01;;;;;;;2.53;0.65;;;;;;;4.41;67.68;100767.34;5045009;28;20084;-43
2023/03/28 02:20:31;;;;;;;1.60;0.98;;;;;;;4.41;67.80;100759.66;5042487;28;20051;-43
2023/03/28 02:23:19;;;;;;;3.58;0.70;;;;;;;4.39;67.96;100769.84;5042757;28;20052;-42
2023/03/28 02:25:47;;;;;;;2.53;0.73;;;;;;;4.37;67.80;100759.56;5041457;28;20078;-44
2023/03/28 02:28:15;;;;;;;0.73;0.73;;;;;;;4.34;67.54;100759.47;5039893;28;20045;-43
2023/03/28 02:30:41;;;;;;;2.67;0.52;;;;;;;4.32;67.78;100750.81;5038767;28;20099;-43
2023/03/28 02:33:37;;;;;;;1.48;0.50;;;;;;;4.29;67.87;100750.72;5039168;28;21038;-43
2023/03/28 02:36:21;;;;;;;1.45;0.63;;;;;;;4.27;68.35;100743.78;5025806;28;20049;-42
2023/03/28 02:41:48;;;;;;;1.08;0.52;;;;;;;4.21;67.91;100722.25;5047788;27;20397;-43
2023/03/28 02:47:17;;;;;;;2.72;1.05;;;;;;;4.18;68.15;100708.44;5046199;28;20394;-43
2023/03/28 02:52:35;;;;;;;1.50;1.00;;;;;;;4.17;68.14;100701.59;5074361;27;20401;-43
2023/03/28 02:55:16;;;;;;;2.78;1.40;;;;;;;4.17;67.87;100688.75;5036629;28;20137;-43
2023/03/28 02:57:51;;;;;;;2.25;1.95;;;;;;;4.15;68.05;100680.16;5060021;28;20044;-43
2023/03/28 03:00:19;;;;;;;1.35;1.15;;;;;;;4.12;68.15;100678.34;5055417;28;20068;-43
2023/03/28 03:02:49;;;;;;;2.13;1.38;;;;;;;4.08;68.49;100672.25;5060717;28;20057;-42
2023/03/28 03:05:18;;;;;;;1.75;1.33;;;;;;;4.14;68.08;100668.13;5057415;28;20466;-42
2023/03/28 03:07:48;;;;;;;2.95;1.65;;;;;;;4.17;68.44;100663.13;5054628;28;20053;-43
2023/03/28 03:10:16;;;;;;;1.98;1.55;;;;;;;4.18;68.40;100649.47;5037462;28;20519;-42
2023/03/28 03:12:43;;;;;;;2.08;1.33;;;;;;;4.17;68.28;100651.19;5040304;28;20645;-43
2023/03/28 03:15:10;;;;;;;1.92;1.73;;;;;;;4.21;67.84;100649.56;5053584;28;20081;-42
2023/03/28 03:17:37;;;;;;;4.68;1.20;;;;;;;4.22;67.92;100648.78;5061466;28;20052;-42
2023/03/28 03:20:06;;;;;;;1.65;1.35;;;;;;;4.24;68.04;100639.44;5058607;28;20072;-42
2023/03/28 03:22:33;;;;;;;1.58;1.48;;;;;;;4.25;67.99;100636.03;5051735;28;21500;-43
2023/03/28 03:25:05;;;;;;;1.70;1.52;;;;;;;4.28;67.34;100625.88;5060459;28;20048;-43
2023/03/28 03:27:33;;;;;;;5.70;1.67;;;;;;;4.25;67.86;100625.78;5052713;28;20493;-42
2023/03/28 03:30:00;;;;;;;2.47;1.40;;;;;;;4.29;67.76;100627.63;5050257;28;20040;-43
2023/03/28 03:32:27;;;;;;;1.90;1.75;;;;;;;4.33;67.59;100619.19;5058147;28;20053;-43
2023/03/28 03:34:54;;;;;;;1.42;1.25;;;;;;;4.25;67.61;100620.66;5057264;28;20091;-42
2023/03/28 03:37:21;;;;;;;3.85;1.42;;;;;;;4.33;67.37;100621.75;5056969;28;20561;-42
2023/03/28 03:39:47;;;;;;;2.33;2.03;;;;;;;4.34;67.98;100618.41;5060162;28;20098;-42
2023/03/28 03:42:14;;;;;;;1.45;1.33;;;;;;;4.36;67.67;100624.44;5052311;28;20072;-42
2023/03/28 03:44:41;;;;;;;1.05;0.65;;;;;;;4.33;68.00;100608.94;5057219;28;20427;-42
2023/03/28 03:47:08;;;;;;;1.83;1.73;;;;;;;4.30;68.12;100611.44;5055258;28;20068;-43
2023/03/28 03:49:34;;;;;;;2.13;1.95;;;;;;;4.26;68.25;100622.41;5058295;28;20515;-43
2023/03/28 03:52:01;;;;;;;1.67;1.42;;;;;;;4.29;68.17;100609.66;5056867;28;20064;-42
2023/03/28 03:54:28;;;;;;;1.70;1.60;;;;;;;4.28;67.97;100604.47;5054892;28;20048;-42
2023/03/28 03:56:55;;;;;;;1.48;1.30;;;;;;;4.32;67.89;100594.38;5057743;28;20094;-42
2023/03/28 03:59:21;;;;;;;2.75;1.60;;;;;;;4.30;68.11;100598.59;5054821;28;20131;-42
2023/03/28 04:01:48;;;;;;;1.50;1.23;;;;;;;4.33;68.10;100598.69;5051943;28;20069;-43
2023/03/28 04:04:15;;;;;;;1.42;1.30;;;;;;;4.32;67.98;100589.25;5043472;28;20045;-43
2023/03/28 04:06:41;;;;;;;2.22;1.80;;;;;;;4.28;68.33;100597.66;5042284;28;20053;-43
2023/03/28 04:09:08;;;;;;;1.80;1.70;;;;;;;4.32;67.66;100581.56;5045191;28;20091;-42
2023/03/28 04:11:35;;;;;;;2.47;1.60;;;;;;;4.31;68.30;100584.94;5043044;28;20064;-42
2023/03/28 04:14:01;;;;;;;1.55;1.45;;;;;;;4.30;67.79;100578.09;5047323;28;20497;-42
2023/03/28 04:16:28;;;;;;;1.48;1.38;;;;;;;4.31;68.23;100573.81;5045422;28;20535;-43
2023/03/28 04:19:06;;;;;;;2.97;1.98;;;;;;;4.32;68.46;100573.88;5048108;28;20078;-42
2023/03/28 04:21:34;;;;;;;2.70;1.33;;;;;;;4.29;68.56;100568.63;5040931;28;20045;-43
2023/03/28 04:24:00;;;;;;;3.80;1.60;;;;;;;4.28;68.58;100566.91;5045232;28;20044;-43
2023/03/28 04:26:28;;;;;;;1.23;1.10;;;;;;;4.31;68.23;100567.00;5041287;28;20136;-43
2023/03/28 04:28:55;;;;;;;1.25;1.05;;;;;;;4.30;68.40;100556.69;5047114;28;20071;-43
2023/03/28 04:31:27;;;;;;;1.48;1.38;;;;;;;4.32;68.33;100566.16;5046472;28;20037;-43
2023/03/28 04:33:54;;;;;;;4.68;4.22;;;;;;;4.28;68.29;100559.19;5046491;28;20037;-43
2023/03/28 04:36:24;;;;;;;1.88;1.48;;;;;;;4.31;68.38;100556.75;5042088;28;20041;-43
2023/03/28 04:38:51;;;;;;;1.52;1.42;;;;;;;4.31;68.91;100543.91;5043666;28;20684;-42
2023/03/28 04:41:18;;;;;;;2.75;1.88;;;;;;;4.32;68.75;100549.94;5042688;28;20746;-42
2023/03/28 04:43:45;;;;;;;2.72;1.45;;;;;;;4.25;69.07;100551.41;5037085;28;20060;-43
2023/03/28 04:46:11;;;;;;;2.47;2.38;;;;;;;4.32;69.42;100547.38;5017781;28;20494;-42
2023/03/28 04:48:38;;;;;;;3.80;1.60;;;;;;;4.28;69.19;100555.75;5019883;28;20051;-43
2023/03/28 04:51:05;;;;;;;1.02;0.57;;;;;;;4.33;69.03;100552.50;5019932;28;20758;-43
2023/03/28 04:53:31;;;;;;;5.30;1.25;;;;;;;4.30;69.05;100556.69;5018010;28;20049;-42
2023/03/28 04:55:58;;;;;;;3.92;1.23;;;;;;;4.35;69.05;100556.00;5022134;28;20045;-43
2023/03/28 04:58:25;;;;;;;5.55;1.83;;;;;;;4.38;68.77;100552.66;5021841;28;21000;-42
2023/03/28 05:00:52;;;;;;;2.00;1.35;;;;;;;4.42;68.82;100551.09;5020187;28;20136;-43
2023/03/28 05:03:21;;;;;;;1.50;1.33;;;;;;;4.44;68.54;100555.44;5022267;28;20099;-44
2023/03/28 05:05:51;;;;;;;1.77;1.67;;;;;;;4.41;68.46;100550.19;5022775;28;20053;-43
2023/03/28 05:08:21;;;;;;;7.32;1.92;;;;;;;4.41;68.72;100544.19;5020907;28;20146;-44
2023/03/28 05:10:48;;;;;;;;;;;;;;;4.38;68.95;100539.84;5026266;28;20048;-43
2023/03/28 05:13:15;;;;;;;3.40;1.55;;;;;;;4.44;68.54;100540.03;5040160;28;20024;-42
2023/03/28 05:15:42;;;;;;;2.35;1.58;;;;;;;4.45;68.45;100535.75;5022737;28;20132;-43
2023/03/28 05:18:10;;;;;;;4.70;1.73;;;;;;;4.44;68.78;100534.03;5021095;28;20553;-42
2023/03/28 05:20:37;;;;;;;2.83;1.55;;;;;;;4.46;68.78;100528.13;5019718;28;20054;-43
2023/03/28 05:23:05;;;;;;;1.80;1.65;;;;;;;4.42;68.84;100525.44;5017459;28;20083;-43
2023/03/28 05:25:31;;;;;;;2.70;2.28;;;;;;;4.43;68.99;100511.78;5021514;28;20057;-43
2023/03/28 05:27:58;;;;;;;4.85;2.22;;;;;;;4.46;68.84;100505.03;5022248;28;20075;-43
2023/03/28 05:30:25;;;;;;;5.03;1.77;;;;;;;4.49;68.51;100523.09;5022261;28;20928;-42
2023/03/28 05:32:52;;;;;;;1.42;0.95;;;;;;;4.58;68.09;100537.88;5036315;28;20314;-43
2023/03/28 05:35:19;;;;;;;2.20;1.95;;;;;;;4.59;68.17;100524.22;5040643;28;20103;-43
2023/03/28 05:37:45;;;;;;;2.20;1.48;;;;;;;4.62;68.15;100524.31;5043040;28;20654;-43
2023/03/28 05:40:13;;;;;;;2.00;1.52;;;;;;;4.62;67.87;100518.31;5036786;28;20053;-43
2023/03/28 05:42:40;;;;;;;2.13;1.88;;;;;;;4.61;67.49;100512.31;5041710;28;20080;-43
2023/03/28 05:45:08;;;;;;;2.88;2.30;;;;;;;4.66;67.97;100514.16;5021281;28;20049;-43
2023/03/28 05:47:35;;;;;;;1.88;1.77;;;;;;;4.66;67.76;100524.41;5020816;28;20114;-42
2023/03/28 05:50:02;;;;;;;2.55;1.75;;;;;;;4.71;67.66;100518.59;5031651;28;20041;-43
2023/03/28 05:52:29;;;;;;;0.80;0.30;;;;;;;4.75;67.70;100517.84;5042349;28;21276;-43
2023/03/28 05:54:56;;;;;;;2.17;1.45;;;;;;;4.74;67.67;100528.06;5018753;28;20112;-43
2023/03/28 05:57:24;;;;;;;2.13;1.98;;;;;;;4.71;67.87;100527.97;5018045;28;20138;-43
2023/03/28 05:59:50;;;;;;;3.33;1.25;;;;;;;4.77;67.07;100523.03;5037141;28;20045;-43
2023/03/28 06:02:19;;;;;;;1.17;1.00;;;;;;;4.82;67.02;100520.56;5030982;28;20045;-43
2023/03/28 06:04:47;;;;;;;2.35;1.05;;;;;;;4.80;67.27;100512.81;5021097;28;20085;-43
2023/03/28 06:07:14;;;;;;;2.38;1.67;;;;;;;4.84;67.56;100507.00;5046459;28;20489;-43
2023/03/28 06:09:41;;;;;;;4.38;1.92;;;;;;;4.88;67.09;100506.25;5042548;28;20099;-43
2023/03/28 06:12:08;;;;;;;1.25;1.00;;;;;;;4.86;67.11;100507.88;5024652;28;20541;-42
2023/03/28 06:14:35;;;;;;;2.00;1.90;;;;;;;4.93;67.19;100508.06;5037411;28;20133;-42
2023/03/28 06:17:01;;;;;;;2.25;1.27;;;;;;;4.97;66.57;100504.75;5045315;28;20044;-43
2023/03/28 06:19:28;;;;;;;2.15;1.77;;;;;;;4.97;67.56;100504.75;5046103;28;20056;-42
2023/03/28 06:21:55;;;;;;;1.90;1.45;;;;;;;4.98;66.86;100501.34;5041793;28;20041;-42
2023/03/28 06:24:21;;;;;;;3.72;1.35;;;;;;;5.02;67.13;100500.59;5043553;28;20048;-43
2023/03/28 06:26:48;;;;;;;2.00;0.82;;;;;;;5.07;66.62;100504.16;5041245;28;20605;-42
2023/03/28 06:29:15;;;;;;;3.17;0.68;;;;;;;5.07;66.70;100496.44;5045962;28;20665;-42
2023/03/28 06:31:42;;;;;;;1.63;1.08;;;;;;;5.10;66.80;100490.56;5040627;28;20064;-42
2023/03/28 06:34:08;;;;;;;2.92;1.75;;;;;;;5.04;67.33;100492.94;5042467;28;20053;-42
2023/03/28 06:36:35;;;;;;;1.40;1.30;;;;;;;5.08;66.83;100482.81;5023547;28;20049;-43
2023/03/28 06:39:02;;;;;;;1.95;1.58;;;;;;;5.08;67.29;100487.94;5031834;28;20045;-42
2023/03/28 06:41:29;;;;;;;3.13;1.85;;;;;;;5.07;67.45;100475.91;5034617;28;20042;-42
2023/03/28 06:43:56;;;;;;;2.13;1.45;;;;;;;5.13;67.41;100476.09;5034150;28;20131;-43
2023/03/28 06:46:22;;;;;;;1.80;1.40;;;;;;;5.08;68.28;100477.66;5033630;28;20049;-43
2023/03/28 06:48:49;;;;;;;1.70;1.50;;;;;;;5.08;68.26;100467.41;5036710;28;20057;-43
2023/03/28 06:51:16;;;;;;;0.90;0.40;;;;;;;5.06;68.35;100463.91;5034746;28;20640;-42
2023/03/28 06:53:42;;;;;;;2.08;1.63;;;;;;;5.02;69.16;100462.09;5031674;28;20045;-43
2023/03/28 06:56:10;;;;;;;0.77;0.43;;;;;;;5.03;68.76;100458.69;5034459;28;20618;-42
2023/03/28 06:58:37;;;;;;;2.05;1.95;;;;;;;5.05;69.10;100451.03;5033753;28;20056;-43
2023/03/28 07:01:05;;;;;;;4.03;1.38;;;;;;;5.02;69.57;100451.81;5039061;28;20076;-42
2023/03/28 07:03:31;;;;;;;2.60;1.25;;;;;;;5.02;69.95;100449.25;5034058;28;20049;-42
2023/03/28 07:06:02;;;;;;;1.95;1.60;;;;;;;5.00;70.25;100445.78;5037220;28;20048;-42
2023/03/28 07:08:29;;;;;;;1.58;1.48;;;;;;;5.06;70.25;100442.53;5030626;28;20144;-43
2023/03/28 07:10:56;;;;;;;3.55;1.52;;;;;;;5.08;69.98;100445.97;5028893;28;20770;-42
2023/03/28 07:13:23;;;;;;;2.55;2.35;;;;;;;5.11;70.87;100441.81;5033214;28;20080;-42
2023/03/28 07:16:07;;;;;;;3.72;2.22;;;;;;;5.13;70.20;100435.00;5033573;28;20099;-42
2023/03/28 07:18:34;;;;;;;4.15;1.83;;;;;;;5.16;71.42;100443.63;5029922;28;20076;-42
2023/03/28 07:21:06;;;;;;;3.35;2.60;;;;;;;5.23;71.02;100435.22;5032740;28;20094;-42
2023/03/28 07:23:33;;;;;;;1.95;1.50;;;;;;;5.28;71.38;100434.50;5031699;28;20132;-43
2023/03/28 07:26:00;;;;;;;4.07;1.23;;;;;;;5.30;70.68;100431.97;5038472;28;20179;-45
2023/03/28 07:28:26;;;;;;;7.07;1.23;;;;;;;5.38;71.54;100427.91;5029756;28;20077;-43
2023/03/28 07:30:54;;;;;;;2.25;1.00;;;;;;;5.45;70.71;100425.50;5030062;28;20080;-43
2023/03/28 07:33:20;;;;;;;2.63;1.58;;;;;;;5.47;70.67;100423.84;5039165;28;20098;-43
2023/03/28 07:36:12;;;;;;;2.20;1.52;;;;;;;5.49;70.75;100423.03;5036198;28;20041;-43
2023/03/28 07:38:39;;;;;;;3.05;1.73;;;;;;;5.48;71.19;100415.31;5037985;28;20501;-43
2023/03/28 07:41:06;;;;;;;1.95;1.35;;;;;;;5.46;71.98;100411.81;5041406;28;20104;-43
2023/03/28 07:43:33;;;;;;;5.30;1.83;;;;;;;5.49;71.09;100419.59;5034922;28;20049;-43
2023/03/28 07:46:05;;;;;;;3.85;1.77;;;;;;;5.52;71.71;100422.25;5044357;28;20049;-43
2023/03/28 07:48:33;;;;;;;2.22;1.75;;;;;;;5.52;71.08;100425.69;5043110;28;20075;-43
2023/03/28 07:51:00;;;;;;;1.75;1.55;;;;;;;5.52;71.98;100423.13;5039851;28;20440;-43
2023/03/28 07:53:27;;;;;;;1.52;1.42;;;;;;;5.50;72.70;100418.75;5042650;28;20049;-43
2023/03/28 07:55:54;;;;;;;1.98;1.50;;;;;;;5.56;72.56;100429.19;5041697;28;20092;-43
2023/03/28 07:58:21;;;;;;;3.08;1.98;;;;;;;5.51;72.62;100421.38;5042547;28;20077;-43
2023/03/28 08:00:49;;;;;;;2.35;1.95;;;;;;;5.50;73.11;100424.78;5041685;28;20060;-42
2023/03/28 08:03:17;;;;;;;2.80;1.27;;;;;;;5.52;74.00;100427.38;5039948;28;20486;-43
2023/03/28 08:05:50;;;;;;;1.67;1.30;;;;;;;5.57;73.32;100419.78;5040291;28;20567;-43
2023/03/28 08:08:18;;;;;;;4.25;2.05;;;;;;;5.57;74.26;100418.06;5038402;28;20053;-43
2023/03/28 08:10:49;;;;;;;1.75;1.60;;;;;;;5.61;73.93;100412.16;5039519;28;20048;-43
2023/03/28 08:13:19;;;;;;;3.58;1.58;;;;;;;5.63;75.34;100418.22;5041441;28;20049;-43
2023/03/28 08:15:49;;;;;;;3.10;2.42;;;;;;;5.63;74.40;100410.53;5036939;28;20126;-42
2023/03/28 08:18:20;;;;;;;4.07;1.95;;;;;;;5.66;74.20;100410.59;5042775;28;20055;-43
2023/03/28 08:20:47;;;;;;;3.95;2.28;;;;;;;5.73;74.36;100405.59;5040710;28;20077;-43
2023/03/28 08:23:15;;;;;;;4.13;3.60;;;;;;;5.78;75.87;100393.72;5039262;28;20046;-43
2023/03/28 08:25:43;;;;;;;2.47;2.17;;;;;;;5.86;75.78;100391.31;5044534;28;20040;-42
2023/03/28 08:28:10;;;;;;;4.10;2.10;;;;;;;5.94;75.63;100389.78;5038795;28;20685;-51
2023/03/28 08:30:36;;;;;;;2.95;2.35;;;;;;;5.98;77.36;100380.44;5037187;28;20510;-43
2023/03/28 08:33:04;;;;;;;2.65;2.00;;;;;;;6.05;77.25;100377.19;5045049;28;20059;-43
2023/03/28 08:35:31;;;;;;;3.60;2.45;;;;;;;6.08;76.32;100374.66;5042016;28;20156;-42
2023/03/28 08:37:58;;;;;;;3.20;2.72;;;;;;;6.13;76.35;100375.66;5038007;28;20068;-42
2023/03/28 08:40:27;;;;;;;3.72;2.25;;;;;;;6.16;76.81;100355.16;5040919;28;20045;-42
2023/03/28 08:43:05;;;;;;;5.70;2.17;;;;;;;6.22;76.60;100353.53;5041737;28;20049;-42
2023/03/28 08:48:25;;;;;;;3.20;1.73;;;;;;;6.27;77.33;100354.47;5062161;27;20587;-42
2023/03/28 08:53:37;;;;;;;3.70;1.45;;;;;;;6.41;77.49;100339.31;5021760;28;20412;-42
2023/03/28 08:56:07;;;;;;;3.45;1.30;;;;;;;6.51;78.01;100335.19;4988169;28;20055;-42
2023/03/28 08:58:46;;;;;;;3.25;1.98;;;;;;;6.57;78.24;100332.75;5014146;28;20552;-42
2023/03/28 09:01:15;;;;;;;5.10;1.50;;;;;;;6.65;78.76;100317.41;4984711;28;20154;-42
2023/03/28 09:03:41;;;;;;;6.53;1.95;;;;;;;6.74;77.57;100309.88;4988458;28;20057;-42
2023/03/28 09:06:23;;;;;;;6.75;1.45;;;;;;;6.83;78.65;100306.59;4983772;28;20046;-49
2023/03/28 09:09:07;;;;;;;1.70;1.38;;;;;;;6.88;78.07;100304.97;4983538;28;20047;-42
2023/03/28 09:14:53;;;;;;;7.35;2.88;;;;;;;7.06;78.15;100303.53;5028273;27;20398;-42
2023/03/28 09:20:23;;;;;;;5.22;2.17;;;;;;;7.32;78.99;100301.34;5045171;27;20879;-43
2023/03/28 09:25:40;;;;;;;3.88;2.00;;;;;;;7.41;78.56;100290.31;5064333;27;20892;-43
2023/03/28 09:30:56;;;;;;;6.80;1.50;;;;;;;7.44;76.64;100308.38;5045545;27;20413;-43
2023/03/28 09:33:33;;;;;;;3.45;1.75;;;;;;;7.50;77.06;100293.88;5023143;28;20057;-43
2023/03/28 09:36:03;;;;;;;6.43;1.40;;;;;;;7.57;77.06;100317.16;5023570;28;20071;-45
2023/03/28 09:38:37;;;;;;;3.05;1.42;;;;;;;7.59;77.91;100301.72;5014495;28;20456;-43
2023/03/28 09:41:13;;;;;;;6.85;2.05;;;;;;;7.57;77.71;100306.00;5032028;28;20048;-43
2023/03/28 09:43:46;;;;;;;6.07;2.17;;;;;;;7.63;77.06;100311.22;5035703;28;20045;-43
2023/03/28 09:46:20;;;;;;;3.20;1.38;;;;;;;7.64;77.11;100301.78;5025068;28;20045;-43
2023/03/28 09:48:47;;;;;;;4.68;1.92;;;;;;;7.65;77.17;100299.22;5041366;28;20052;-44
2023/03/28 09:51:19;;;;;;;6.97;2.50;;;;;;;7.73;77.68;100301.88;5023783;28;20049;-44
2023/03/28 09:53:46;;;;;;;6.07;2.63;;;;;;;7.77;78.08;100310.56;5037639;28;20111;-43
2023/03/28 10:04:10;;;;;;;10.02;2.88;;;;;;;7.78;78.03;100309.69;5072713;27;20392;-43
2023/03/28 10:06:39;;;;;;;6.35;3.63;;;;;;;7.75;78.50;100299.34;5049925;28;20059;-42
2023/03/28 10:09:28;;;;;;;6.45;3.55;;;;;;;7.69;78.79;100295.84;5026250;28;20087;-42
2023/03/28 10:11:58;;;;;;;3.45;2.72;;;;;;;7.75;78.43;100294.19;5034893;28;20069;-42
2023/03/28 10:14:45;;;;;;;8.98;2.47;;;;;;;7.76;78.18;100286.47;5029331;28;20398;-42
2023/03/28 10:19:50;;;;;;;9.05;1.92;;;;;;;7.76;78.41;100272.69;5032389;28;20395;-43
2023/03/28 10:22:29;;;;;;;3.30;1.50;;;;;;;7.74;78.79;100267.56;5001080;28;20038;-42
2023/03/28 10:24:56;;;;;;;5.00;2.42;;;;;;;7.78;78.07;100259.00;4977271;28;20510;-42
2023/03/28 10:27:31;;;;;;;5.88;2.90;;;;;;;7.79;79.11;100259.84;4998670;28;20046;-52
2023/03/28 10:30:18;;;;;;;4.00;1.75;;;;;;;7.77;79.11;100261.56;5001324;28;20053;-42
2023/03/28 10:33:20;;;;;;;4.95;1.88;;;;;;;7.80;78.19;100252.13;4998954;28;20053;-42
2023/03/28 10:35:54;;;;;;;5.22;2.47;;;;;;;7.82;79.25;100244.41;5002418;28;20327;-42
2023/03/28 10:38:25;;;;;;;2.88;2.13;;;;;;;7.89;78.20;100246.22;5000406;28;20046;-43
2023/03/28 10:40:57;;;;;;;;;;;;;;;7.82;79.92;100239.25;4999229;28;20736;-43
2023/03/28 10:43:33;;;;;;;3.50;2.05;;;;;;;7.87;78.63;100245.31;5000325;28;19921;-43
2023/03/28 10:46:02;;;;;;;14.05;2.05;;;;;;;7.84;79.13;100247.91;4998708;28;20134;-43
2023/03/28 10:48:32;;;;;;;2.90;2.00;;;;;;;7.86;79.81;100241.03;5000922;28;20061;-43
2023/03/28 10:51:07;;;;;;;6.78;2.13;;;;;;;7.87;79.06;100237.59;5000639;28;20053;-44
2023/03/28 10:59:15;;;;;;;3.03;1.42;;;;;;;7.92;80.10;100245.38;5102611;27;20384;-42
2023/03/28 11:01:58;;;;;;;2.97;1.02;;;;;;;7.94;79.94;100234.25;5054769;28;20052;-44
2023/03/28 11:09:51;;;;;;;4.82;1.52;;;;;;;8.04;79.08;100235.19;5051212;28;21749;-43
2023/03/28 11:15:23;;;;;;;3.22;1.40;;;;;;;8.12;78.60;100217.22;5010658;28;20396;-42
2023/03/28 11:18:30;;;;;;;2.65;1.10;;;;;;;8.11;78.67;100215.50;4999692;28;20050;-43
2023/03/28 11:23:43;;;;;;;3.60;1.15;;;;;;;8.21;79.46;100201.00;5024522;28;20413;-43
2023/03/28 11:31:52;;;;;;;2.35;2.15;;;;;;;8.37;77.86;100196.81;5061930;27;20394;-43
2023/03/28 11:37:07;;;;;;;1.88;0.65;;;;;;;8.35;77.66;100183.88;5101779;27;20388;-42
2023/03/28 11:42:19;;;;;;;2.08;1.85;;;;;;;8.44;77.16;100183.09;5015078;27;20416;-45
2023/03/28 11:45:01;;;;;;;1.38;0.50;;;;;;;8.45;76.84;100178.81;5009585;28;20770;-43
2023/03/28 11:47:34;;;;;;;2.35;1.83;;;;;;;8.49;77.50;100178.00;5009732;28;20095;-43
2023/03/28 11:52:50;;;;;;;1.92;1.05;;;;;;;8.41;76.74;100175.34;5049483;27;20395;-43
2023/03/28 11:58:03;;;;;;;3.95;0.82;;;;;;;8.30;75.53;100164.06;5066459;27;20403;-44
2023/03/28 12:00:45;;;;;;;0.82;0.70;;;;;;;8.20;76.26;100163.13;4993112;27;20073;-44
2023/03/28 12:05:53;;;;;;;1.05;0.75;;;;;;;8.07;76.51;100157.00;5030227;27;20759;-45
2023/03/28 12:11:13;;;;;;;2.78;0.70;;;;;;;8.07;76.26;100149.25;5049760;27;20414;-43
2023/03/28 12:13:53;;;;;;;1.92;0.75;;;;;;;8.07;77.41;100136.38;5037299;28;20053;-44
2023/03/28 12:16:44;;;;;;;2.38;1.00;;;;;;;8.06;76.93;100127.75;5013486;28;20077;-43
2023/03/28 12:19:14;;;;;;;2.33;0.65;;;;;;;8.05;77.83;100125.16;4995208;28;20046;-43
2023/03/28 12:21:43;;;;;;;1.80;1.02;;;;;;;8.03;77.93;100116.53;4996824;28;20082;-43
2023/03/28 12:27:27;;;;;;;1.42;1.15;;;;;;;8.12;77.14;100108.88;4992962;28;20422;-45
2023/03/28 12:43:05;;;;;;;3.20;2.13;;;;;;;8.41;74.52;100073.81;5049931;27;20401;-43
2023/03/28 12:45:40;;;;;;;4.68;0.80;;;;;;;8.13;74.92;100073.59;5040549;28;20073;-45
2023/03/28 12:48:12;;;;;;;2.25;0.82;;;;;;;8.12;74.34;100062.44;5039975;28;20079;-44
2023/03/28 12:50:48;;;;;;;2.70;1.83;;;;;;;8.09;75.11;100073.59;5039945;28;20442;-44
2023/03/28 12:53:16;;;;;;;2.17;0.68;;;;;;;8.11;73.91;100065.88;5041344;28;20045;-44
2023/03/28 12:55:47;;;;;;;1.70;1.10;;;;;;;8.15;75.16;100056.44;5039080;28;20060;-46
2023/03/28 12:58:25;;;;;;;2.95;0.63;;;;;;;8.13;74.21;100042.66;5052538;28;20040;-44
2023/03/28 13:14:18;;;;;;;3.50;1.92;;;;;;;8.03;72.55;100026.25;5077812;27;20413;-45
2023/03/28 13:16:54;;;;;;;1.67;1.58;;;;;;;8.00;73.39;100031.41;5065213;28;20060;-46
2023/03/28 13:19:37;;;;;;;2.67;2.28;;;;;;;7.98;73.25;100019.34;5053683;28;20056;-46
2023/03/28 13:22:05;;;;;;;2.08;1.85;;;;;;;8.02;72.61;100014.19;5038145;28;20099;-44
2023/03/28 13:24:35;;;;;;;4.05;2.60;;;;;;;8.04;72.68;100002.19;5044156;28;20049;-44
2023/03/28 13:27:31;;;;;;;1.17;0.60;;;;;;;8.09;72.45;100000.50;5055747;28;20049;-43
2023/03/28 13:32:45;;;;;;;1.55;0.75;;;;;;;8.29;72.46;100003.22;5012926;28;20743;-44
2023/03/28 13:35:41;;;;;;;1.08;0.65;;;;;;;8.33;71.97;99998.91;5010581;28;20053;-43
2023/03/28 13:41:08;;;;;;;2.20;1.83;;;;;;;8.29;71.32;99992.00;5040423;27;20480;-43
2023/03/28 13:46:15;;;;;;;2.17;0.68;;;;;;;8.25;70.33;99985.13;5051434;28;20397;-44
2023/03/28 13:51:27;;;;;;;1.63;0.77;;;;;;;8.20;69.31;99982.50;5014356;28;20917;-45
2023/03/28 13:53:54;;;;;;;1.58;0.77;;;;;;;8.20;69.58;99983.38;4999368;28;20503;-47
2023/03/28 13:56:27;;;;;;;3.28;0.98;;;;;;;8.17;70.14;99967.88;5000110;28;20046;-45
2023/03/28 13:58:57;;;;;;;3.55;1.67;;;;;;;8.15;69.66;99972.16;4996225;28;20097;-45
2023/03/28 14:01:31;;;;;;;1.92;0.82;;;;;;;8.06;70.25;99964.34;5003955;28;20100;-44
2023/03/28 14:03:58;;;;;;;1.85;0.93;;;;;;;8.02;70.05;99957.47;4995020;28;20046;-45
2023/03/28 14:06:29;;;;;;;2.83;0.82;;;;;;;7.91;69.76;99950.50;4990928;28;20077;-44
2023/03/28 14:08:57;;;;;;;1.33;0.68;;;;;;;8.03;70.27;99948.84;4994927;28;20057;-45
2023/03/28 14:11:32;;;;;;;1.85;0.80;;;;;;;7.93;70.39;99923.03;5026909;28;20042;-43
2023/03/28 14:16:41;;;;;;;0.70;0.40;;;;;;;7.95;69.92;99923.03;5067676;27;20388;-43
2023/03/28 14:19:16;;;;;;;1.02;0.80;;;;;;;7.93;70.17;99914.41;5037079;28;20107;-45
2023/03/28 14:21:47;;;;;;;2.50;0.30;;;;;;;7.92;69.11;99911.00;5061438;28;20543;-45
2023/03/28 14:24:21;;;;;;;2.13;0.65;;;;;;;7.89;69.77;99897.19;5058614;28;20476;-45